createdAt,value
2022-09-22T00:00:38.939Z,99.44
2022-09-22T00:01:38.940Z,99.44
2022-09-22T00:02:38.873Z,99.44
2022-09-22T00:03:38.878Z,99.34
2022-09-22T00:04:38.882Z,99.34
2022-09-22T00:05:38.854Z,99.34
2022-09-22T00:06:39.008Z,99.34
2022-09-22T00:07:38.823Z,99.34
2022-09-22T00:08:38.815Z,99.34
2022-09-22T00:09:38.794Z,99.34
2022-09-22T00:10:38.794Z,99.24
2022-09-22T00:11:38.773Z,99.24
2022-09-22T00:12:38.804Z,99.24
2022-09-22T00:13:38.754Z,99.14
2022-09-22T00:14:38.751Z,99.04
2022-09-22T00:15:38.748Z,99.14
2022-09-22T00:16:38.830Z,99.08
2022-09-22T00:17:38.743Z,99.08
2022-09-22T00:18:38.705Z,99.18
2022-09-22T00:19:38.697Z,99.18
2022-09-22T00:20:38.685Z,99.18
2022-09-22T00:21:38.668Z,99.18
2022-09-22T00:22:38.660Z,99.18
2022-09-22T00:23:38.677Z,99.18
2022-09-22T00:24:38.638Z,99.29
2022-09-22T00:25:38.636Z,99.29
2022-09-22T00:26:38.621Z,99.29
2022-09-22T00:27:38.661Z,99.29
2022-09-22T00:28:38.605Z,99.29
2022-09-22T00:29:38.612Z,99.29
2022-09-22T00:30:38.579Z,99.18
2022-09-22T00:31:38.615Z,99.18
2022-09-22T00:32:38.575Z,99.18
2022-09-22T00:33:38.557Z,99.18
2022-09-22T00:34:38.543Z,99.08
2022-09-22T00:35:38.511Z,99.13
2022-09-22T00:36:38.510Z,99.13
2022-09-22T00:37:38.499Z,99.13
2022-09-22T00:38:38.512Z,99.18
2022-09-22T00:39:38.482Z,99.29
2022-09-22T00:40:38.558Z,99.29
2022-09-22T00:41:38.443Z,99.29
2022-09-22T00:42:38.458Z,99.29
2022-09-22T00:43:38.462Z,99.18
2022-09-22T00:44:38.415Z,99.08
2022-09-22T00:45:39.354Z,98.97
2022-09-22T00:46:38.437Z,98.88
2022-09-22T00:47:38.374Z,98.77
2022-09-22T00:48:38.370Z,98.77
2022-09-22T00:49:38.372Z,98.67
2022-09-22T00:50:38.344Z,98.61
2022-09-22T00:51:39.322Z,98.50
2022-09-22T00:52:38.369Z,98.50
2022-09-22T00:53:38.365Z,98.50
2022-09-22T00:54:38.314Z,98.50
2022-09-22T00:55:38.282Z,98.61
2022-09-22T00:56:38.295Z,98.50
2022-09-22T00:57:38.265Z,98.61
2022-09-22T00:58:38.269Z,98.66
2022-09-22T00:59:38.305Z,98.66
2022-09-22T01:00:38.300Z,98.76
2022-09-22T01:01:38.288Z,98.82
2022-09-22T01:02:38.233Z,98.82
2022-09-22T01:03:38.225Z,98.82
2022-09-22T01:04:38.199Z,98.92
2022-09-22T01:05:38.217Z,98.82
2022-09-22T01:06:38.177Z,98.76
2022-09-22T01:07:38.157Z,98.66
2022-09-22T01:08:38.163Z,98.66
2022-09-22T01:09:38.132Z,98.55
2022-09-22T01:10:38.130Z,98.55
2022-09-22T01:11:38.138Z,98.66
2022-09-22T01:12:38.123Z,98.66
2022-09-22T01:13:39.048Z,98.76
2022-09-22T01:14:38.084Z,98.86
2022-09-22T01:15:38.140Z,98.76
2022-09-22T01:16:38.062Z,98.76
2022-09-22T01:17:38.080Z,98.80
2022-09-22T01:18:38.040Z,98.91
2022-09-22T01:19:38.011Z,98.91
2022-09-22T01:20:38.011Z,99.01
2022-09-22T01:21:37.999Z,99.07
2022-09-22T01:22:38.021Z,99.17
2022-09-22T01:23:37.980Z,99.17
2022-09-22T01:24:37.969Z,99.17
2022-09-22T01:25:37.961Z,99.17
2022-09-22T01:26:37.967Z,99.07
2022-09-22T01:27:37.972Z,98.97
2022-09-22T01:28:37.936Z,98.97
2022-09-22T01:29:37.932Z,98.97
2022-09-22T01:30:37.916Z,98.86
2022-09-22T01:31:37.962Z,98.97
2022-09-22T01:32:37.893Z,98.86
2022-09-22T01:33:37.893Z,98.86
2022-09-22T01:34:37.864Z,98.97
2022-09-22T01:35:37.882Z,98.86
2022-09-22T01:36:37.866Z,98.97
2022-09-22T01:37:37.850Z,98.97
2022-09-22T01:38:37.824Z,98.86
2022-09-22T01:39:37.795Z,98.86
2022-09-22T01:40:37.878Z,98.86
2022-09-22T01:41:37.800Z,98.86
2022-09-22T01:42:37.804Z,98.86
2022-09-22T01:43:37.763Z,98.86
2022-09-22T01:44:37.763Z,98.97
2022-09-22T01:45:37.764Z,98.97
2022-09-22T01:46:37.805Z,98.91
2022-09-22T01:47:37.746Z,98.91
2022-09-22T01:48:37.714Z,98.91
2022-09-22T01:49:37.699Z,99.01
2022-09-22T01:50:37.711Z,99.01
2022-09-22T01:51:37.690Z,98.91
2022-09-22T01:52:37.666Z,98.91
2022-09-22T01:53:37.670Z,98.91
2022-09-22T01:54:37.649Z,98.91
2022-09-22T01:55:37.628Z,98.91
2022-09-22T01:56:37.624Z,99.01
2022-09-22T01:57:37.623Z,99.01
2022-09-22T01:58:37.591Z,99.07
2022-09-22T01:59:37.613Z,99.07
2022-09-22T02:00:37.590Z,99.11
2022-09-22T02:01:37.663Z,99.07
2022-09-22T02:02:37.701Z,99.07
2022-09-22T02:03:37.530Z,99.07
2022-09-22T02:04:37.539Z,99.07
2022-09-22T02:05:37.545Z,98.97
2022-09-22T02:06:37.510Z,98.97
2022-09-22T02:07:37.501Z,98.97
2022-09-22T02:08:37.492Z,98.97
2022-09-22T02:09:37.505Z,98.86
2022-09-22T02:10:37.471Z,98.91
2022-09-22T02:11:37.450Z,98.91
2022-09-22T02:12:37.442Z,98.80
2022-09-22T02:13:37.421Z,98.80
2022-09-22T02:14:37.444Z,98.70
2022-09-22T02:15:37.432Z,98.70
2022-09-22T02:16:37.420Z,98.70
2022-09-22T02:17:37.376Z,98.80
2022-09-22T02:18:37.395Z,98.80
2022-09-22T02:19:37.514Z,98.91
2022-09-22T02:20:37.353Z,98.91
2022-09-22T02:21:37.373Z,98.91
2022-09-22T02:22:37.339Z,98.96
2022-09-22T02:23:37.315Z,98.96
2022-09-22T02:24:37.336Z,99.06
2022-09-22T02:25:37.308Z,99.06
2022-09-22T02:26:37.326Z,99.16
2022-09-22T02:27:37.281Z,99.16
2022-09-22T02:28:37.264Z,99.16
2022-09-22T02:29:37.326Z,99.16
2022-09-22T02:30:37.241Z,99.26
2022-09-22T02:31:37.301Z,99.26
2022-09-22T02:32:37.278Z,99.26
2022-09-22T02:33:38.281Z,99.26
2022-09-22T02:34:37.233Z,99.26
2022-09-22T02:35:37.250Z,99.37
2022-09-22T02:36:37.179Z,99.37
2022-09-22T02:37:37.168Z,99.37
2022-09-22T02:38:37.247Z,99.37
2022-09-22T02:39:37.185Z,99.26
2022-09-22T02:40:37.155Z,99.26
2022-09-22T02:41:37.116Z,99.16
2022-09-22T02:42:37.105Z,99.26
2022-09-22T02:43:37.108Z,99.26
2022-09-22T02:44:37.130Z,99.31
2022-09-22T02:45:38.032Z,99.41
2022-09-22T02:46:37.124Z,99.41
2022-09-22T02:47:37.048Z,99.41
2022-09-22T02:48:37.067Z,99.52
2022-09-22T02:49:37.031Z,99.57
2022-09-22T02:50:37.074Z,99.62
2022-09-22T02:51:37.006Z,99.62
2022-09-22T02:52:37.007Z,99.57
2022-09-22T02:53:36.993Z,99.52
2022-09-22T02:54:36.979Z,99.52
2022-09-22T02:55:37.001Z,99.52
2022-09-22T02:56:36.963Z,99.52
2022-09-22T02:57:36.943Z,99.62
2022-09-22T02:58:36.933Z,99.62
2022-09-22T02:59:36.928Z,99.72
2022-09-22T03:00:36.945Z,99.72
2022-09-22T03:01:36.923Z,99.72
2022-09-22T03:02:36.915Z,99.82
2022-09-22T03:03:36.921Z,99.82
2022-09-22T03:04:36.965Z,99.72
2022-09-22T03:05:36.879Z,99.72
2022-09-22T03:06:36.898Z,99.72
2022-09-22T03:07:36.853Z,99.72
2022-09-22T03:08:36.831Z,99.72
2022-09-22T03:09:36.811Z,99.72
2022-09-22T03:10:36.819Z,99.68
2022-09-22T03:11:36.794Z,99.62
2022-09-22T03:12:36.831Z,99.57
2022-09-22T03:13:36.801Z,99.72
2022-09-22T03:14:36.763Z,99.57
2022-09-22T03:15:36.837Z,99.62
2022-09-22T03:16:36.748Z,99.62
2022-09-22T03:17:36.758Z,99.62
2022-09-22T03:18:36.732Z,99.52
2022-09-22T03:19:43.400Z,99.52
2022-09-22T03:20:36.694Z,99.52
2022-09-22T03:21:36.675Z,99.52
2022-09-22T03:22:36.675Z,99.52
2022-09-22T03:23:36.686Z,99.52
2022-09-22T03:24:36.655Z,99.41
2022-09-22T03:25:36.686Z,99.41
2022-09-22T03:26:36.626Z,99.41
2022-09-22T03:27:36.631Z,99.41
2022-09-22T03:28:36.618Z,99.31
2022-09-22T03:29:36.605Z,99.31
2022-09-22T03:30:36.653Z,99.31
2022-09-22T03:31:36.596Z,99.31
2022-09-22T03:32:36.587Z,99.31
2022-09-22T03:33:36.570Z,99.25
2022-09-22T03:34:36.537Z,99.35
2022-09-22T03:35:36.555Z,99.35
2022-09-22T03:36:36.518Z,99.35
2022-09-22T03:37:36.557Z,99.46
2022-09-22T03:38:36.496Z,99.56
2022-09-22T03:39:36.499Z,99.56
2022-09-22T03:40:36.512Z,99.56
2022-09-22T03:41:36.458Z,99.56
2022-09-22T03:42:36.488Z,99.46
2022-09-22T03:43:36.469Z,99.56
2022-09-22T03:44:36.419Z,99.56
2022-09-22T03:45:36.427Z,99.56
2022-09-22T03:46:36.429Z,99.56
2022-09-22T03:47:36.392Z,99.56
2022-09-22T03:48:36.398Z,99.56
2022-09-22T03:49:36.375Z,99.56
2022-09-22T03:50:36.409Z,99.56
2022-09-22T03:51:36.357Z,99.66
2022-09-22T03:52:36.343Z,99.56
2022-09-22T03:53:36.354Z,99.56
2022-09-22T03:54:36.317Z,99.56
2022-09-22T03:55:36.321Z,99.46
2022-09-22T03:56:36.331Z,99.61
2022-09-22T03:57:36.309Z,99.51
2022-09-22T03:58:36.274Z,99.51
2022-09-22T03:59:36.261Z,99.51
2022-09-22T04:00:36.252Z,99.51
2022-09-22T04:01:36.298Z,99.51
2022-09-22T04:02:36.616Z,99.61
2022-09-22T04:03:36.376Z,99.61
2022-09-22T04:04:36.376Z,99.61
2022-09-22T04:05:36.203Z,99.61
2022-09-22T04:06:37.219Z,99.61
2022-09-22T04:07:36.174Z,99.71
2022-09-22T04:08:37.124Z,99.71
2022-09-22T04:09:36.964Z,99.71
2022-09-22T04:10:36.145Z,99.71
2022-09-22T04:11:36.996Z,99.71
2022-09-22T04:12:36.129Z,99.71
2022-09-22T04:13:36.128Z,99.61
2022-09-22T04:14:36.123Z,99.61
2022-09-22T04:15:38.050Z,99.51
2022-09-22T04:16:36.142Z,99.61
2022-09-22T04:17:36.079Z,99.51
2022-09-22T04:18:37.005Z,99.51
2022-09-22T04:19:36.073Z,99.51
2022-09-22T04:20:36.989Z,99.65
2022-09-22T04:21:36.291Z,99.65
2022-09-22T04:22:36.025Z,99.65
2022-09-22T04:23:37.457Z,99.65
2022-09-22T04:24:36.276Z,99.65
2022-09-22T04:25:37.428Z,99.65
2022-09-22T04:26:36.017Z,99.65
2022-09-22T04:27:35.990Z,99.76
2022-09-22T04:28:37.399Z,99.65
2022-09-22T04:29:36.830Z,99.76
2022-09-22T04:30:35.982Z,99.76
2022-09-22T04:31:36.869Z,99.76
2022-09-22T04:32:37.359Z,99.76
2022-09-22T04:33:35.896Z,99.76
2022-09-22T04:34:35.881Z,99.76
2022-09-22T04:35:36.142Z,99.86
2022-09-22T04:36:35.905Z,99.86
2022-09-22T04:37:35.852Z,99.86
2022-09-22T04:38:37.303Z,99.86
2022-09-22T04:39:36.812Z,99.86
2022-09-22T04:40:36.684Z,99.86
2022-09-22T04:41:35.803Z,99.86
2022-09-22T04:42:35.811Z,99.86
2022-09-22T04:43:37.231Z,99.86
2022-09-22T04:44:36.643Z,99.86
2022-09-22T04:45:39.515Z,99.96
2022-09-22T04:46:35.984Z,99.91
2022-09-22T04:47:35.774Z,99.91
2022-09-22T04:48:35.735Z,99.80
2022-09-22T04:49:35.757Z,99.91
2022-09-22T04:50:35.942Z,99.91
2022-09-22T04:51:35.715Z,99.99
2022-09-22T04:52:36.217Z,99.91
2022-09-22T04:53:35.754Z,99.91
2022-09-22T04:54:35.714Z,99.99
2022-09-22T04:55:35.654Z,99.99
2022-09-22T04:56:37.113Z,99.99
2022-09-22T04:57:35.636Z,99.99
2022-09-22T04:58:35.806Z,99.99
2022-09-22T04:59:36.414Z,99.99
2022-09-22T05:00:35.598Z,99.99
2022-09-22T05:01:35.716Z,99.99
2022-09-22T05:02:35.570Z,99.99
2022-09-22T05:03:37.190Z,99.99
2022-09-22T05:04:35.603Z,99.99
2022-09-22T05:05:35.575Z,99.99
2022-09-22T05:06:35.560Z,99.96
2022-09-22T05:07:35.518Z,99.96
2022-09-22T05:08:35.523Z,99.86
2022-09-22T05:09:35.506Z,99.86
2022-09-22T05:10:35.505Z,99.86
2022-09-22T05:11:35.473Z,99.86
2022-09-22T05:12:36.255Z,99.92
2022-09-22T05:13:35.477Z,99.92
2022-09-22T05:14:35.487Z,99.82
2022-09-22T05:15:35.459Z,99.82
2022-09-22T05:16:35.520Z,99.76
2022-09-22T05:17:35.496Z,99.65
2022-09-22T05:18:35.459Z,99.65
2022-09-22T05:19:35.382Z,99.65
2022-09-22T05:20:35.358Z,99.44
2022-09-22T05:21:35.363Z,99.34
2022-09-22T05:22:39.838Z,99.34
2022-09-22T05:23:35.532Z,99.24
2022-09-22T05:24:35.468Z,99.14
2022-09-22T05:25:35.312Z,99.18
2022-09-22T05:26:35.500Z,99.18
2022-09-22T05:27:35.305Z,99.18
2022-09-22T05:28:35.450Z,99.18
2022-09-22T05:29:35.270Z,99.29
2022-09-22T05:30:35.284Z,99.29
2022-09-22T05:31:35.504Z,99.29
2022-09-22T05:32:35.318Z,99.39
2022-09-22T05:33:35.257Z,99.39
2022-09-22T05:34:35.200Z,99.49
2022-09-22T05:35:37.009Z,99.49
2022-09-22T05:36:35.185Z,99.49
2022-09-22T05:37:35.249Z,99.49
2022-09-22T05:38:35.177Z,99.49
2022-09-22T05:39:35.164Z,99.49
2022-09-22T05:40:35.309Z,99.49
2022-09-22T05:41:35.535Z,99.49
2022-09-22T05:42:35.495Z,99.49
2022-09-22T05:43:35.155Z,99.60
2022-09-22T05:44:35.130Z,99.60
2022-09-22T05:45:35.121Z,99.60
2022-09-22T05:46:35.074Z,99.60
2022-09-22T05:47:35.061Z,99.60
2022-09-22T05:48:35.068Z,99.60
2022-09-22T05:49:35.069Z,99.70
2022-09-22T05:50:35.034Z,99.65
2022-09-22T05:51:35.015Z,99.76
2022-09-22T05:52:35.004Z,99.76
2022-09-22T05:53:35.847Z,99.76
2022-09-22T05:54:35.017Z,99.76
2022-09-22T05:55:35.055Z,99.76
2022-09-22T05:56:35.932Z,99.76
2022-09-22T05:57:34.962Z,99.76
2022-09-22T05:58:34.930Z,99.76
2022-09-22T05:59:34.956Z,99.76
2022-09-22T06:00:34.959Z,99.76
2022-09-22T06:01:34.907Z,99.71
2022-09-22T06:02:34.945Z,99.71
2022-09-22T06:03:34.893Z,99.71
2022-09-22T06:04:34.889Z,99.71
2022-09-22T06:05:37.503Z,99.61
2022-09-22T06:06:34.927Z,99.61
2022-09-22T06:07:34.862Z,99.61
2022-09-22T06:08:34.840Z,99.61
2022-09-22T06:09:34.927Z,99.61
2022-09-22T06:10:34.818Z,99.61
2022-09-22T06:11:34.859Z,99.61
2022-09-22T06:12:34.798Z,99.71
2022-09-22T06:13:34.810Z,99.66
2022-09-22T06:14:35.073Z,99.66
2022-09-22T06:15:34.760Z,99.77
2022-09-22T06:16:35.739Z,99.77
2022-09-22T06:17:36.198Z,99.87
2022-09-22T06:18:34.746Z,99.87
2022-09-22T06:19:34.709Z,99.82
2022-09-22T06:20:34.713Z,99.82
2022-09-22T06:21:34.690Z,99.82
2022-09-22T06:22:34.709Z,99.82
2022-09-22T06:23:37.320Z,99.82
2022-09-22T06:24:34.671Z,99.82
2022-09-22T06:25:34.642Z,99.82
2022-09-22T06:26:34.634Z,99.78
2022-09-22T06:27:34.956Z,99.78
2022-09-22T06:28:34.632Z,99.78
2022-09-22T06:29:34.606Z,99.78
2022-09-22T06:30:34.612Z,99.78
2022-09-22T06:31:35.060Z,99.78
2022-09-22T06:32:36.022Z,99.63
2022-09-22T06:33:34.573Z,99.63
2022-09-22T06:34:34.728Z,99.63
2022-09-22T06:35:34.553Z,99.63
2022-09-22T06:36:34.553Z,99.58
2022-09-22T06:37:34.527Z,99.48
2022-09-22T06:38:34.512Z,99.48
2022-09-22T06:39:34.955Z,99.48
2022-09-22T06:40:34.524Z,99.48
2022-09-22T06:41:34.626Z,99.33
2022-09-22T06:42:34.544Z,99.33
2022-09-22T06:43:34.445Z,99.33
2022-09-22T06:44:35.016Z,99.33
2022-09-22T06:45:35.080Z,99.33
2022-09-22T06:46:35.379Z,99.18
2022-09-22T06:47:34.601Z,99.08
2022-09-22T06:48:34.479Z,99.08
2022-09-22T06:49:34.385Z,98.97
2022-09-22T06:50:34.415Z,98.83
2022-09-22T06:51:34.377Z,98.83
2022-09-22T06:52:37.215Z,98.72
2022-09-22T06:53:35.022Z,98.62
2022-09-22T06:54:34.326Z,98.52
2022-09-22T06:55:34.316Z,98.37
2022-09-22T06:56:36.785Z,98.27
2022-09-22T06:57:34.307Z,98.16
2022-09-22T06:58:52.449Z,98.06
2022-09-22T06:59:35.271Z,97.86
2022-09-22T07:00:34.390Z,97.61
2022-09-22T07:01:34.335Z,97.40
2022-09-22T07:02:34.234Z,97.19
2022-09-22T07:03:34.254Z,96.99
2022-09-22T07:04:34.239Z,96.73
2022-09-22T07:05:35.151Z,96.53
2022-09-22T07:06:34.207Z,96.43
2022-09-22T07:07:34.184Z,96.33
2022-09-22T07:08:34.166Z,96.08
2022-09-22T07:09:34.189Z,95.87
2022-09-22T07:10:34.162Z,95.77
2022-09-22T07:11:37.580Z,95.56
2022-09-22T07:12:35.123Z,95.36
2022-09-22T07:13:34.113Z,95.10
2022-09-22T07:14:34.117Z,95.01
2022-09-22T07:15:34.119Z,94.80
2022-09-22T07:16:34.119Z,94.59
2022-09-22T07:17:34.102Z,94.49
2022-09-22T07:18:34.076Z,94.34
2022-09-22T07:19:34.086Z,94.04
2022-09-22T07:20:34.048Z,93.83
2022-09-22T07:21:34.033Z,93.63
2022-09-22T07:22:34.004Z,93.07
2022-09-22T07:23:34.013Z,92.76
2022-09-22T07:24:33.998Z,92.46
2022-09-22T07:25:34.015Z,91.94
2022-09-22T07:26:33.973Z,91.59
2022-09-22T07:27:33.963Z,91.38
2022-09-22T07:28:33.964Z,91.28
2022-09-22T07:29:33.956Z,91.08
2022-09-22T07:30:33.927Z,90.83
2022-09-22T07:31:34.002Z,90.52
2022-09-22T07:32:33.970Z,90.22
2022-09-22T07:33:33.911Z,89.81
2022-09-22T07:34:33.886Z,89.15
2022-09-22T07:35:33.918Z,88.84
2022-09-22T07:36:34.043Z,88.53
2022-09-22T07:37:33.899Z,88.43
2022-09-22T07:38:33.836Z,87.88
2022-09-22T07:39:33.816Z,87.26
2022-09-22T07:40:33.977Z,87.16
2022-09-22T07:41:33.827Z,86.65
2022-09-22T07:42:34.784Z,86.61
2022-09-22T07:43:33.916Z,86.51
2022-09-22T07:44:35.374Z,86.51
2022-09-22T07:45:34.784Z,86.51
2022-09-22T07:46:33.933Z,86.36
2022-09-22T07:47:33.992Z,85.96
2022-09-22T07:48:33.900Z,85.75
2022-09-22T07:49:33.729Z,85.55
2022-09-22T07:50:34.178Z,85.50
2022-09-22T07:51:33.862Z,85.30
2022-09-22T07:52:33.856Z,85.20
2022-09-22T07:53:33.676Z,85.10
2022-09-22T07:54:33.887Z,84.85
2022-09-22T07:55:34.037Z,84.44
2022-09-22T07:56:33.699Z,84.24
2022-09-22T07:57:33.668Z,84.14
2022-09-22T07:58:33.860Z,84.00
2022-09-22T07:59:33.815Z,83.89
2022-09-22T08:00:33.651Z,83.89
2022-09-22T08:01:33.672Z,84.09
2022-09-22T08:02:33.572Z,84.00
2022-09-22T08:03:33.581Z,83.85
2022-09-22T08:04:33.584Z,83.54
2022-09-22T08:05:33.713Z,83.14
2022-09-22T08:06:33.602Z,82.93
2022-09-22T08:07:33.517Z,82.53
2022-09-22T08:08:34.972Z,82.39
2022-09-22T08:09:33.499Z,82.18
2022-09-22T08:10:33.516Z,81.98
2022-09-22T08:11:34.342Z,81.84
2022-09-22T08:12:33.498Z,81.32
2022-09-22T08:13:33.442Z,81.23
2022-09-22T08:14:33.635Z,81.12
2022-09-22T08:15:34.425Z,80.88
2022-09-22T08:16:33.497Z,80.68
2022-09-22T08:17:33.773Z,80.68
2022-09-22T08:18:33.464Z,80.57
2022-09-22T08:19:33.385Z,80.16
2022-09-22T08:20:40.683Z,80.07
2022-09-22T08:21:34.375Z,80.02
2022-09-22T08:22:33.877Z,80.23
2022-09-22T08:23:33.381Z,80.43
2022-09-22T08:24:33.522Z,80.54
2022-09-22T08:25:33.317Z,80.64
2022-09-22T08:26:33.287Z,80.29
2022-09-22T08:27:33.298Z,79.99
2022-09-22T08:28:33.299Z,78.97
2022-09-22T08:29:33.268Z,77.85
2022-09-22T08:30:33.315Z,77.30
2022-09-22T08:31:34.807Z,77.20
2022-09-22T08:32:33.862Z,77.40
2022-09-22T08:33:34.672Z,77.40
2022-09-22T08:34:33.210Z,76.90
2022-09-22T08:35:33.561Z,76.45
2022-09-22T08:36:33.928Z,75.43
2022-09-22T08:37:33.188Z,75.13
2022-09-22T08:38:33.204Z,74.93
2022-09-22T08:39:33.347Z,74.93
2022-09-22T08:40:33.187Z,74.72
2022-09-22T08:41:33.150Z,74.18
2022-09-22T08:42:33.131Z,73.97
2022-09-22T08:43:33.101Z,73.87
2022-09-22T08:44:33.133Z,73.87
2022-09-22T08:45:33.072Z,73.97
2022-09-22T08:46:33.133Z,73.77
2022-09-22T08:47:33.093Z,73.74
2022-09-22T08:48:33.077Z,73.84
2022-09-22T08:49:33.097Z,74.04
2022-09-22T08:50:33.102Z,74.15
2022-09-22T08:51:33.043Z,73.70
2022-09-22T08:52:33.005Z,73.19
2022-09-22T08:53:33.067Z,72.69
2022-09-22T08:54:32.998Z,72.78
2022-09-22T08:55:33.016Z,73.09
2022-09-22T08:56:32.990Z,72.99
2022-09-22T08:57:32.997Z,72.85
2022-09-22T08:58:33.107Z,72.85
2022-09-22T08:59:32.984Z,72.55
2022-09-22T09:00:32.958Z,72.14
2022-09-22T09:01:33.085Z,71.84
2022-09-22T09:02:33.033Z,71.73
2022-09-22T09:03:32.902Z,71.80
2022-09-22T09:04:32.938Z,71.80
2022-09-22T09:05:32.887Z,71.50
2022-09-22T09:06:32.885Z,71.20
2022-09-22T09:07:32.911Z,71.20
2022-09-22T09:08:32.848Z,70.38
2022-09-22T09:09:32.836Z,70.04
2022-09-22T09:10:32.842Z,69.74
2022-09-22T09:11:32.895Z,69.54
2022-09-22T09:12:32.833Z,69.23
2022-09-22T09:13:32.802Z,69.03
2022-09-22T09:14:32.793Z,68.42
2022-09-22T09:15:32.761Z,67.27
2022-09-22T09:16:35.612Z,67.68
2022-09-22T09:17:33.926Z,67.68
2022-09-22T09:18:32.763Z,67.58
2022-09-22T09:19:32.732Z,67.68
2022-09-22T09:20:32.732Z,67.68
2022-09-22T09:21:32.695Z,67.68
2022-09-22T09:22:32.686Z,67.58
2022-09-22T09:25:33.975Z,67.55
2022-09-22T09:26:32.745Z,67.24
2022-09-22T09:27:32.634Z,67.34
2022-09-22T09:28:32.862Z,67.44
2022-09-22T09:29:32.602Z,67.44
2022-09-22T09:30:32.606Z,67.41
2022-09-22T09:31:32.642Z,67.31
2022-09-22T09:32:32.606Z,67.00
2022-09-22T09:33:32.557Z,66.60
2022-09-22T09:34:32.549Z,65.76
2022-09-22T09:35:32.759Z,65.56
2022-09-22T09:36:32.537Z,65.66
2022-09-22T09:37:32.539Z,65.86
2022-09-22T09:38:32.505Z,65.76
2022-09-22T09:39:33.389Z,66.06
2022-09-22T09:40:32.543Z,65.36
2022-09-22T09:41:32.508Z,65.05
2022-09-22T09:42:32.478Z,65.22
2022-09-22T09:43:32.450Z,65.32
2022-09-22T09:44:32.441Z,65.32
2022-09-22T09:45:32.434Z,65.73
2022-09-22T09:46:32.476Z,64.61
2022-09-22T09:47:32.561Z,64.41
2022-09-22T09:48:32.403Z,64.01
2022-09-22T09:49:32.563Z,63.78
2022-09-22T09:50:32.637Z,63.87
2022-09-22T09:51:32.382Z,63.87
2022-09-22T09:52:32.377Z,63.67
2022-09-22T09:53:32.362Z,63.57
2022-09-22T09:54:32.329Z,63.47
2022-09-22T09:55:32.392Z,63.57
2022-09-22T09:56:32.323Z,63.17
2022-09-22T09:57:32.318Z,63.57
2022-09-22T09:58:32.294Z,64.48
2022-09-22T09:59:32.284Z,64.48
2022-09-22T10:00:32.533Z,63.13
2022-09-22T10:01:32.336Z,62.93
2022-09-22T10:02:32.245Z,62.43
2022-09-22T10:03:32.248Z,62.53
2022-09-22T10:04:32.216Z,62.53
2022-09-22T10:05:32.205Z,62.53
2022-09-22T10:06:32.244Z,62.23
2022-09-22T10:08:32.182Z,61.62
2022-09-22T10:09:32.149Z,61.72
2022-09-22T10:10:32.166Z,61.82
2022-09-22T10:11:32.146Z,62.10
2022-09-22T10:12:32.165Z,61.08
2022-09-22T10:13:32.139Z,60.78
2022-09-22T10:14:32.146Z,60.88
2022-09-22T10:15:32.185Z,60.48
2022-09-22T10:16:32.087Z,60.38
2022-09-22T10:17:32.094Z,60.96
2022-09-22T10:18:32.100Z,60.55
2022-09-22T10:19:32.060Z,60.05
2022-09-22T10:20:32.039Z,59.74
2022-09-22T10:21:32.020Z,59.34
2022-09-22T10:22:34.520Z,58.93
2022-09-22T10:23:32.000Z,58.83
2022-09-22T10:24:32.028Z,58.43
2022-09-22T10:25:32.008Z,58.02
2022-09-22T10:26:31.986Z,58.43
2022-09-22T10:27:31.952Z,58.63
2022-09-22T10:28:31.983Z,57.92
2022-09-22T10:29:31.953Z,57.59
2022-09-22T10:30:31.933Z,57.49
2022-09-22T10:31:31.958Z,57.09
2022-09-22T10:32:31.909Z,57.18
2022-09-22T10:33:31.888Z,58.09
2022-09-22T10:34:31.998Z,58.40
2022-09-22T10:35:31.874Z,56.76
2022-09-22T10:36:31.879Z,56.85
2022-09-22T10:37:31.845Z,57.87
2022-09-22T10:38:31.860Z,57.36
2022-09-22T10:39:31.846Z,56.65
2022-09-22T10:40:31.912Z,56.12
2022-09-22T10:41:31.809Z,56.02
2022-09-22T10:42:31.791Z,56.23
2022-09-22T10:43:31.789Z,55.72
2022-09-22T10:44:39.365Z,56.12
2022-09-22T10:45:32.798Z,54.91
2022-09-22T10:46:31.817Z,54.51
2022-09-22T10:47:31.758Z,54.61
2022-09-22T10:48:31.728Z,54.91
2022-09-22T10:49:31.718Z,54.61
2022-09-22T10:50:31.736Z,55.72
2022-09-22T10:51:31.703Z,55.52
2022-09-22T10:52:31.745Z,55.49
2022-09-22T10:53:31.669Z,54.28
2022-09-22T10:54:31.661Z,55.69
2022-09-22T10:55:31.658Z,55.69
2022-09-22T10:56:31.672Z,55.49
2022-09-22T10:57:31.622Z,55.29
2022-09-22T10:58:31.615Z,55.19
2022-09-22T10:59:31.610Z,55.97
2022-09-22T11:00:35.238Z,56.27
2022-09-22T11:01:32.689Z,55.77
2022-09-22T11:02:31.588Z,55.66
2022-09-22T11:03:31.923Z,54.56
2022-09-22T11:04:31.645Z,54.25
2022-09-22T11:05:31.649Z,54.36
2022-09-22T11:06:31.531Z,54.66
2022-09-22T11:07:31.554Z,54.56
2022-09-22T11:08:31.503Z,54.73
2022-09-22T11:09:31.578Z,53.72
2022-09-22T11:10:32.006Z,53.45
2022-09-22T11:11:33.550Z,53.45
2022-09-22T11:12:31.457Z,53.45
2022-09-22T11:13:31.471Z,52.84
2022-09-22T11:14:31.478Z,52.94
2022-09-22T11:15:31.487Z,53.14
2022-09-22T11:16:31.435Z,53.96
2022-09-22T11:17:31.563Z,53.22
2022-09-22T11:18:31.427Z,52.72
2022-09-22T11:19:31.386Z,53.12
2022-09-22T11:20:31.379Z,52.92
2022-09-22T11:21:31.389Z,52.72
2022-09-22T11:22:31.358Z,52.92
2022-09-22T11:23:32.361Z,53.22
2022-09-22T11:24:31.331Z,53.32
2022-09-22T11:25:31.313Z,53.02
2022-09-22T11:26:31.340Z,53.22
2022-09-22T11:27:31.311Z,52.72
2022-09-22T11:28:31.409Z,52.22
2022-09-22T11:29:31.272Z,52.31
2022-09-22T11:30:31.444Z,52.11
2022-09-22T11:31:31.288Z,52.29
2022-09-22T11:32:31.244Z,52.19
2022-09-22T11:33:31.654Z,52.49
2022-09-22T11:34:31.854Z,52.39
2022-09-22T11:35:31.221Z,52.39
2022-09-22T11:36:31.244Z,52.09
2022-09-22T11:37:31.237Z,51.99
2022-09-22T11:38:31.194Z,51.28
2022-09-22T11:39:31.170Z,52.19
2022-09-22T11:40:31.197Z,52.49
2022-09-22T11:41:31.132Z,50.68
2022-09-22T11:42:31.256Z,51.48
2022-09-22T11:43:31.116Z,51.18
2022-09-22T11:44:31.933Z,51.68
2022-09-22T11:45:31.366Z,51.48
2022-09-22T11:46:31.264Z,51.48
2022-09-22T11:47:31.072Z,50.78
2022-09-22T11:48:31.090Z,51.28
2022-09-22T11:49:31.050Z,51.38
2022-09-22T11:50:31.039Z,51.59
2022-09-22T11:51:31.052Z,51.48
2022-09-22T11:52:31.035Z,51.08
2022-09-22T11:53:31.099Z,49.77
2022-09-22T11:54:31.018Z,50.27
2022-09-22T11:55:30.976Z,50.48
2022-09-22T11:56:30.975Z,51.28
2022-09-22T11:57:31.003Z,51.59
2022-09-22T11:58:30.961Z,51.18
2022-09-22T11:59:30.938Z,50.76
2022-09-22T12:00:30.957Z,51.06
2022-09-22T12:01:31.052Z,50.56
2022-09-22T12:02:31.051Z,50.96
2022-09-22T12:03:31.030Z,51.66
2022-09-22T12:04:30.871Z,51.46
2022-09-22T12:05:30.920Z,51.06
2022-09-22T12:06:30.893Z,51.06
2022-09-22T12:07:30.849Z,51.23
2022-09-22T12:08:30.929Z,51.34
2022-09-22T12:09:34.214Z,50.73
2022-09-22T12:10:31.805Z,50.53
2022-09-22T12:11:31.136Z,49.82
2022-09-22T12:12:32.245Z,48.99
2022-09-22T12:13:30.784Z,48.69
2022-09-22T12:14:30.785Z,48.29
2022-09-22T12:15:30.775Z,48.29
2022-09-22T12:16:30.754Z,48.37
2022-09-22T12:17:30.749Z,47.97
2022-09-22T12:18:30.748Z,47.56
2022-09-22T12:19:30.717Z,47.14
2022-09-22T12:20:31.148Z,46.44
2022-09-22T12:21:31.118Z,46.31
2022-09-22T12:22:30.689Z,46.17
2022-09-22T12:23:31.544Z,45.75
2022-09-22T12:24:30.652Z,45.20
2022-09-22T12:25:47.613Z,44.78
2022-09-22T12:26:31.629Z,44.13
2022-09-22T12:27:30.921Z,43.21
2022-09-22T12:28:31.191Z,42.57
2022-09-22T12:29:30.869Z,41.63
2022-09-22T12:30:30.686Z,41.71
2022-09-22T12:31:30.588Z,41.28
2022-09-22T12:32:32.030Z,40.46
2022-09-22T12:33:30.572Z,39.84
2022-09-22T12:34:30.554Z,38.73
2022-09-22T12:35:31.216Z,38.31
2022-09-22T12:36:30.626Z,37.99
2022-09-22T12:37:30.523Z,37.77
2022-09-22T12:38:30.507Z,36.57
2022-09-22T12:39:31.956Z,36.47
2022-09-22T12:40:30.552Z,36.55
2022-09-22T12:41:30.575Z,36.04
2022-09-22T12:42:30.946Z,35.34
2022-09-22T12:43:30.504Z,35.62
2022-09-22T12:44:30.456Z,35.82
2022-09-22T12:45:30.441Z,35.41
2022-09-22T12:46:30.700Z,35.01
2022-09-22T12:47:30.486Z,34.69
2022-09-22T12:48:30.440Z,34.89
2022-09-22T12:49:30.502Z,34.08
2022-09-22T12:50:30.586Z,34.08
2022-09-22T12:51:30.360Z,33.37
2022-09-22T12:52:31.213Z,33.67
2022-09-22T12:53:31.336Z,33.47
2022-09-22T12:54:30.331Z,33.56
2022-09-22T12:55:31.786Z,33.65